sensor_id;sensor_type;location;lat;lon;timestamp;P1;durP1;ratioP1;P2;durP2;ratioP2
43457;SDS011;29046;54.184;18.680;2023-05-16T00:00:53;10.52;;;8.75;;
43457;SDS011;29046;54.184;18.680;2023-05-16T00:03:25;11.88;;;7.85;;
43457;SDS011;29046;54.184;18.680;2023-05-16T00:05:52;10.75;;;7.93;;
43457;SDS011;29046;54.184;18.680;2023-05-16T00:08:21;11.15;;;7.63;;
43457;SDS011;29046;54.184;18.680;2023-05-16T00:10:48;10.27;;;7.78;;
43457;SDS011;29046;54.184;18.680;2023-05-16T00:13:16;7.80;;;7.00;;
43457;SDS011;29046;54.184;18.680;2023-05-16T00:15:47;8.05;;;6.75;;
43457;SDS011;29046;54.184;18.680;2023-05-16T00:18:15;8.85;;;7.13;;
43457;SDS011;29046;54.184;18.680;2023-05-16T00:20:42;9.13;;;6.90;;
43457;SDS011;29046;54.184;18.680;2023-05-16T00:23:10;12.52;;;7.40;;
43457;SDS011;29046;54.184;18.680;2023-05-16T00:25:38;8.00;;;6.70;;
43457;SDS011;29046;54.184;18.680;2023-05-16T00:28:06;9.38;;;6.65;;
43457;SDS011;29046;54.184;18.680;2023-05-16T00:30:34;8.30;;;6.53;;
43457;SDS011;29046;54.184;18.680;2023-05-16T00:33:01;9.18;;;6.63;;
43457;SDS011;29046;54.184;18.680;2023-05-16T00:35:29;10.18;;;7.32;;
43457;SDS011;29046;54.184;18.680;2023-05-16T00:37:57;9.77;;;7.93;;
43457;SDS011;29046;54.184;18.680;2023-05-16T00:40:24;8.43;;;7.45;;
43457;SDS011;29046;54.184;18.680;2023-05-16T00:42:52;10.98;;;7.75;;
43457;SDS011;29046;54.184;18.680;2023-05-16T00:45:20;11.80;;;7.72;;
43457;SDS011;29046;54.184;18.680;2023-05-16T00:47:47;9.98;;;7.60;;
43457;SDS011;29046;54.184;18.680;2023-05-16T00:50:15;9.90;;;8.52;;
43457;SDS011;29046;54.184;18.680;2023-05-16T00:52:42;10.63;;;8.93;;
43457;SDS011;29046;54.184;18.680;2023-05-16T00:55:10;11.20;;;9.18;;
43457;SDS011;29046;54.184;18.680;2023-05-16T00:57:38;10.45;;;8.32;;
43457;SDS011;29046;54.184;18.680;2023-05-16T01:00:06;9.48;;;7.65;;
43457;SDS011;29046;54.184;18.680;2023-05-16T01:02:37;12.23;;;9.55;;
43457;SDS011;29046;54.184;18.680;2023-05-16T01:05:05;11.82;;;9.55;;
43457;SDS011;29046;54.184;18.680;2023-05-16T01:07:34;11.57;;;9.02;;
43457;SDS011;29046;54.184;18.680;2023-05-16T01:10:02;12.43;;;9.68;;
43457;SDS011;29046;54.184;18.680;2023-05-16T01:27:56;14.47;;;11.00;;
43457;SDS011;29046;54.184;18.680;2023-05-16T01:30:23;13.60;;;11.10;;
43457;SDS011;29046;54.184;18.680;2023-05-16T01:32:51;15.52;;;12.05;;
43457;SDS011;29046;54.184;18.680;2023-05-16T01:35:19;14.10;;;11.98;;
43457;SDS011;29046;54.184;18.680;2023-05-16T01:40:22;15.95;;;11.35;;
43457;SDS011;29046;54.184;18.680;2023-05-16T01:42:55;14.57;;;12.48;;
43457;SDS011;29046;54.184;18.680;2023-05-16T01:45:28;16.88;;;13.35;;
43457;SDS011;29046;54.184;18.680;2023-05-16T01:48:14;16.75;;;14.05;;
43457;SDS011;29046;54.184;18.680;2023-05-16T01:50:43;16.23;;;14.13;;
43457;SDS011;29046;54.184;18.680;2023-05-16T01:53:18;18.80;;;15.45;;
43457;SDS011;29046;54.184;18.680;2023-05-16T01:55:47;17.02;;;14.55;;
43457;SDS011;29046;54.184;18.680;2023-05-16T01:58:16;17.67;;;14.23;;
43457;SDS011;29046;54.184;18.680;2023-05-16T02:00:44;19.38;;;15.15;;
43457;SDS011;29046;54.184;18.680;2023-05-16T02:03:12;21.80;;;15.30;;
43457;SDS011;29046;54.184;18.680;2023-05-16T02:05:39;17.63;;;14.93;;
43457;SDS011;29046;54.184;18.680;2023-05-16T02:08:07;19.48;;;15.50;;
43457;SDS011;29046;54.184;18.680;2023-05-16T02:10:34;18.17;;;13.75;;
43457;SDS011;29046;54.184;18.680;2023-05-16T02:13:02;20.58;;;14.43;;
43457;SDS011;29046;54.184;18.680;2023-05-16T02:15:29;18.77;;;14.73;;
43457;SDS011;29046;54.184;18.680;2023-05-16T02:17:57;19.08;;;13.65;;
43457;SDS011;29046;54.184;18.680;2023-05-16T02:20:25;15.52;;;12.85;;
43457;SDS011;29046;54.184;18.680;2023-05-16T02:22:52;17.77;;;14.50;;
43457;SDS011;29046;54.184;18.680;2023-05-16T02:25:20;19.85;;;13.23;;
43457;SDS011;29046;54.184;18.680;2023-05-16T02:27:47;18.30;;;14.55;;
43457;SDS011;29046;54.184;18.680;2023-05-16T02:30:15;20.13;;;15.60;;
43457;SDS011;29046;54.184;18.680;2023-05-16T02:32:42;21.15;;;14.32;;
43457;SDS011;29046;54.184;18.680;2023-05-16T02:35:10;19.17;;;16.23;;
43457;SDS011;29046;54.184;18.680;2023-05-16T02:37:39;18.95;;;14.52;;
43457;SDS011;29046;54.184;18.680;2023-05-16T02:40:06;19.13;;;14.57;;
43457;SDS011;29046;54.184;18.680;2023-05-16T02:42:34;18.17;;;14.70;;
43457;SDS011;29046;54.184;18.680;2023-05-16T02:45:02;16.70;;;14.23;;
43457;SDS011;29046;54.184;18.680;2023-05-16T02:47:29;18.52;;;14.55;;
43457;SDS011;29046;54.184;18.680;2023-05-16T02:49:57;19.60;;;14.25;;
43457;SDS011;29046;54.184;18.680;2023-05-16T02:52:25;16.50;;;14.50;;
43457;SDS011;29046;54.184;18.680;2023-05-16T02:54:53;19.50;;;15.45;;
43457;SDS011;29046;54.184;18.680;2023-05-16T02:57:41;17.60;;;14.18;;
43457;SDS011;29046;54.184;18.680;2023-05-16T03:00:09;16.67;;;12.30;;
43457;SDS011;29046;54.184;18.680;2023-05-16T03:02:37;16.58;;;12.10;;
43457;SDS011;29046;54.184;18.680;2023-05-16T03:05:04;18.00;;;13.98;;
43457;SDS011;29046;54.184;18.680;2023-05-16T03:07:32;15.45;;;13.10;;
43457;SDS011;29046;54.184;18.680;2023-05-16T03:10:00;20.35;;;13.85;;
43457;SDS011;29046;54.184;18.680;2023-05-16T03:12:27;14.93;;;12.40;;
43457;SDS011;29046;54.184;18.680;2023-05-16T03:14:55;16.27;;;11.13;;
43457;SDS011;29046;54.184;18.680;2023-05-16T03:17:22;14.30;;;11.60;;
43457;SDS011;29046;54.184;18.680;2023-05-16T03:19:50;17.05;;;11.98;;
43457;SDS011;29046;54.184;18.680;2023-05-16T03:22:18;14.80;;;11.38;;
43457;SDS011;29046;54.184;18.680;2023-05-16T03:24:45;14.98;;;10.35;;
43457;SDS011;29046;54.184;18.680;2023-05-16T03:27:13;12.02;;;9.07;;
43457;SDS011;29046;54.184;18.680;2023-05-16T03:29:41;9.20;;;7.60;;
43457;SDS011;29046;54.184;18.680;2023-05-16T03:32:09;11.82;;;8.93;;
43457;SDS011;29046;54.184;18.680;2023-05-16T03:34:36;7.05;;;5.93;;
43457;SDS011;29046;54.184;18.680;2023-05-16T03:37:04;9.73;;;6.97;;
43457;SDS011;29046;54.184;18.680;2023-05-16T03:39:32;6.65;;;5.55;;
43457;SDS011;29046;54.184;18.680;2023-05-16T03:41:59;10.10;;;6.65;;
43457;SDS011;29046;54.184;18.680;2023-05-16T03:44:27;9.70;;;5.38;;
43457;SDS011;29046;54.184;18.680;2023-05-16T03:46:54;9.68;;;6.20;;
43457;SDS011;29046;54.184;18.680;2023-05-16T03:49:23;5.13;;;4.05;;
43457;SDS011;29046;54.184;18.680;2023-05-16T03:51:53;5.55;;;4.07;;
43457;SDS011;29046;54.184;18.680;2023-05-16T03:54:20;4.25;;;3.30;;
43457;SDS011;29046;54.184;18.680;2023-05-16T03:56:48;5.95;;;3.85;;
43457;SDS011;29046;54.184;18.680;2023-05-16T03:59:16;9.90;;;3.85;;
43457;SDS011;29046;54.184;18.680;2023-05-16T04:01:43;5.22;;;3.72;;
43457;SDS011;29046;54.184;18.680;2023-05-16T04:04:11;4.40;;;3.22;;
43457;SDS011;29046;54.184;18.680;2023-05-16T04:06:39;5.47;;;4.45;;
43457;SDS011;29046;54.184;18.680;2023-05-16T04:09:07;8.10;;;4.82;;
43457;SDS011;29046;54.184;18.680;2023-05-16T04:11:35;4.70;;;3.58;;
43457;SDS011;29046;54.184;18.680;2023-05-16T04:14:04;2.47;;;1.70;;
43457;SDS011;29046;54.184;18.680;2023-05-16T04:16:31;5.00;;;2.13;;
43457;SDS011;29046;54.184;18.680;2023-05-16T04:18:59;4.28;;;2.92;;
43457;SDS011;29046;54.184;18.680;2023-05-16T04:21:27;3.10;;;2.53;;
43457;SDS011;29046;54.184;18.680;2023-05-16T04:23:54;4.65;;;2.45;;
43457;SDS011;29046;54.184;18.680;2023-05-16T04:26:23;2.70;;;1.48;;
43457;SDS011;29046;54.184;18.680;2023-05-16T04:28:51;6.50;;;2.20;;
43457;SDS011;29046;54.184;18.680;2023-05-16T04:31:18;1.95;;;1.55;;
43457;SDS011;29046;54.184;18.680;2023-05-16T04:33:47;2.40;;;1.80;;
43457;SDS011;29046;54.184;18.680;2023-05-16T04:36:15;1.95;;;1.58;;
43457;SDS011;29046;54.184;18.680;2023-05-16T04:38:42;1.45;;;1.30;;
43457;SDS011;29046;54.184;18.680;2023-05-16T04:41:12;1.75;;;1.05;;
43457;SDS011;29046;54.184;18.680;2023-05-16T04:43:40;1.75;;;1.50;;
43457;SDS011;29046;54.184;18.680;2023-05-16T04:46:07;7.45;;;1.20;;
43457;SDS011;29046;54.184;18.680;2023-05-16T04:48:35;1.70;;;1.30;;
43457;SDS011;29046;54.184;18.680;2023-05-16T04:51:03;1.42;;;1.30;;
43457;SDS011;29046;54.184;18.680;2023-05-16T04:53:30;1.83;;;1.30;;
43457;SDS011;29046;54.184;18.680;2023-05-16T04:55:58;1.15;;;1.05;;
43457;SDS011;29046;54.184;18.680;2023-05-16T04:58:26;2.25;;;1.02;;
43457;SDS011;29046;54.184;18.680;2023-05-16T05:00:53;1.00;;;0.90;;
43457;SDS011;29046;54.184;18.680;2023-05-16T05:03:21;1.08;;;0.90;;
43457;SDS011;29046;54.184;18.680;2023-05-16T05:05:48;1.23;;;0.85;;
43457;SDS011;29046;54.184;18.680;2023-05-16T05:08:17;1.42;;;1.20;;
43457;SDS011;29046;54.184;18.680;2023-05-16T05:10:45;1.15;;;1.00;;
43457;SDS011;29046;54.184;18.680;2023-05-16T05:13:12;2.30;;;1.08;;
43457;SDS011;29046;54.184;18.680;2023-05-16T05:15:40;1.67;;;0.80;;
43457;SDS011;29046;54.184;18.680;2023-05-16T05:18:07;1.80;;;0.85;;
43457;SDS011;29046;54.184;18.680;2023-05-16T05:20:36;5.82;;;1.10;;
43457;SDS011;29046;54.184;18.680;2023-05-16T05:23:03;0.77;;;0.70;;
43457;SDS011;29046;54.184;18.680;2023-05-16T05:25:31;1.98;;;0.93;;
43457;SDS011;29046;54.184;18.680;2023-05-16T05:28:02;1.05;;;1.00;;
43457;SDS011;29046;54.184;18.680;2023-05-16T05:30:30;1.23;;;1.00;;
43457;SDS011;29046;54.184;18.680;2023-05-16T05:32:57;1.00;;;0.90;;
43457;SDS011;29046;54.184;18.680;2023-05-16T05:35:25;1.35;;;1.00;;
43457;SDS011;29046;54.184;18.680;2023-05-16T05:37:52;5.82;;;1.13;;
43457;SDS011;29046;54.184;18.680;2023-05-16T05:40:20;1.60;;;1.23;;
43457;SDS011;29046;54.184;18.680;2023-05-16T05:42:48;1.40;;;0.85;;
43457;SDS011;29046;54.184;18.680;2023-05-16T05:45:16;1.77;;;1.30;;
43457;SDS011;29046;54.184;18.680;2023-05-16T05:47:43;1.50;;;1.23;;
43457;SDS011;29046;54.184;18.680;2023-05-16T05:50:11;2.05;;;1.15;;
43457;SDS011;29046;54.184;18.680;2023-05-16T05:52:40;4.68;;;1.80;;
43457;SDS011;29046;54.184;18.680;2023-05-16T05:55:07;3.22;;;1.55;;
43457;SDS011;29046;54.184;18.680;2023-05-16T05:57:35;2.08;;;1.45;;
43457;SDS011;29046;54.184;18.680;2023-05-16T06:00:03;2.33;;;1.70;;
43457;SDS011;29046;54.184;18.680;2023-05-16T06:02:31;3.58;;;2.10;;
43457;SDS011;29046;54.184;18.680;2023-05-16T06:04:59;3.28;;;1.92;;
43457;SDS011;29046;54.184;18.680;2023-05-16T06:07:26;6.40;;;2.25;;
43457;SDS011;29046;54.184;18.680;2023-05-16T06:09:54;3.63;;;2.47;;
43457;SDS011;29046;54.184;18.680;2023-05-16T06:12:21;5.43;;;2.00;;
43457;SDS011;29046;54.184;18.680;2023-05-16T06:14:49;2.25;;;1.73;;
43457;SDS011;29046;54.184;18.680;2023-05-16T06:17:16;1.73;;;1.27;;
43457;SDS011;29046;54.184;18.680;2023-05-16T06:19:45;4.03;;;2.47;;
43457;SDS011;29046;54.184;18.680;2023-05-16T06:22:12;3.42;;;2.35;;
43457;SDS011;29046;54.184;18.680;2023-05-16T06:24:40;3.88;;;2.42;;
43457;SDS011;29046;54.184;18.680;2023-05-16T06:27:07;4.10;;;2.95;;
43457;SDS011;29046;54.184;18.680;2023-05-16T06:29:35;2.30;;;1.90;;
43457;SDS011;29046;54.184;18.680;2023-05-16T06:32:02;2.75;;;1.95;;
43457;SDS011;29046;54.184;18.680;2023-05-16T06:34:30;3.05;;;1.88;;
43457;SDS011;29046;54.184;18.680;2023-05-16T06:36:57;4.97;;;2.70;;
43457;SDS011;29046;54.184;18.680;2023-05-16T06:39:25;4.70;;;2.72;;
43457;SDS011;29046;54.184;18.680;2023-05-16T06:41:53;4.30;;;1.88;;
43457;SDS011;29046;54.184;18.680;2023-05-16T06:44:22;4.82;;;2.00;;
43457;SDS011;29046;54.184;18.680;2023-05-16T06:46:50;2.70;;;1.48;;
43457;SDS011;29046;54.184;18.680;2023-05-16T06:49:18;4.53;;;2.28;;
43457;SDS011;29046;54.184;18.680;2023-05-16T06:51:45;3.33;;;2.65;;
43457;SDS011;29046;54.184;18.680;2023-05-16T06:54:13;3.47;;;1.55;;
43457;SDS011;29046;54.184;18.680;2023-05-16T06:56:40;3.72;;;1.75;;
43457;SDS011;29046;54.184;18.680;2023-05-16T06:59:08;1.38;;;1.08;;
43457;SDS011;29046;54.184;18.680;2023-05-16T07:01:35;2.60;;;2.05;;
43457;SDS011;29046;54.184;18.680;2023-05-16T07:04:03;4.35;;;2.90;;
43457;SDS011;29046;54.184;18.680;2023-05-16T07:06:31;2.05;;;1.60;;
43457;SDS011;29046;54.184;18.680;2023-05-16T07:09:00;2.03;;;1.30;;
43457;SDS011;29046;54.184;18.680;2023-05-16T07:11:27;2.65;;;1.05;;
43457;SDS011;29046;54.184;18.680;2023-05-16T07:13:55;5.20;;;1.30;;
43457;SDS011;29046;54.184;18.680;2023-05-16T07:16:22;1.50;;;1.20;;
43457;SDS011;29046;54.184;18.680;2023-05-16T07:18:50;2.28;;;1.60;;
43457;SDS011;29046;54.184;18.680;2023-05-16T07:21:18;1.80;;;1.33;;
43457;SDS011;29046;54.184;18.680;2023-05-16T07:23:45;1.35;;;1.15;;
43457;SDS011;29046;54.184;18.680;2023-05-16T07:26:13;2.92;;;1.48;;
43457;SDS011;29046;54.184;18.680;2023-05-16T07:28:41;5.95;;;2.03;;
43457;SDS011;29046;54.184;18.680;2023-05-16T07:31:11;6.10;;;2.15;;
43457;SDS011;29046;54.184;18.680;2023-05-16T07:33:42;2.20;;;1.42;;
43457;SDS011;29046;54.184;18.680;2023-05-16T07:36:10;4.97;;;2.15;;
43457;SDS011;29046;54.184;18.680;2023-05-16T07:38:43;1.88;;;1.48;;
43457;SDS011;29046;54.184;18.680;2023-05-16T07:41:11;3.30;;;1.80;;
43457;SDS011;29046;54.184;18.680;2023-05-16T07:43:38;1.00;;;0.80;;
43457;SDS011;29046;54.184;18.680;2023-05-16T07:46:06;6.82;;;2.00;;
43457;SDS011;29046;54.184;18.680;2023-05-16T07:48:34;3.10;;;1.67;;
43457;SDS011;29046;54.184;18.680;2023-05-16T07:51:01;1.30;;;1.20;;
43457;SDS011;29046;54.184;18.680;2023-05-16T07:53:29;2.53;;;1.17;;
43457;SDS011;29046;54.184;18.680;2023-05-16T07:55:57;3.13;;;1.63;;
43457;SDS011;29046;54.184;18.680;2023-05-16T07:58:25;5.70;;;1.75;;
43457;SDS011;29046;54.184;18.680;2023-05-16T08:00:53;3.75;;;2.10;;
43457;SDS011;29046;54.184;18.680;2023-05-16T08:03:21;4.00;;;2.20;;
43457;SDS011;29046;54.184;18.680;2023-05-16T08:05:48;2.80;;;1.77;;
43457;SDS011;29046;54.184;18.680;2023-05-16T08:08:17;22.38;;;14.18;;
43457;SDS011;29046;54.184;18.680;2023-05-16T08:10:45;5.50;;;3.55;;
43457;SDS011;29046;54.184;18.680;2023-05-16T08:13:12;5.28;;;2.53;;
43457;SDS011;29046;54.184;18.680;2023-05-16T08:15:40;4.07;;;2.30;;
43457;SDS011;29046;54.184;18.680;2023-05-16T08:18:12;4.68;;;1.77;;
43457;SDS011;29046;54.184;18.680;2023-05-16T08:20:44;3.97;;;2.58;;
43457;SDS011;29046;54.184;18.680;2023-05-16T08:23:12;3.17;;;1.92;;
43457;SDS011;29046;54.184;18.680;2023-05-16T08:25:40;6.93;;;3.30;;
43457;SDS011;29046;54.184;18.680;2023-05-16T08:28:08;3.85;;;1.85;;
43457;SDS011;29046;54.184;18.680;2023-05-16T08:30:35;5.32;;;2.30;;
43457;SDS011;29046;54.184;18.680;2023-05-16T08:33:05;1.50;;;1.33;;
43457;SDS011;29046;54.184;18.680;2023-05-16T08:35:32;2.78;;;1.50;;
43457;SDS011;29046;54.184;18.680;2023-05-16T08:38:01;2.50;;;1.60;;
43457;SDS011;29046;54.184;18.680;2023-05-16T08:40:28;2.92;;;1.65;;
43457;SDS011;29046;54.184;18.680;2023-05-16T08:42:57;2.00;;;1.40;;
43457;SDS011;29046;54.184;18.680;2023-05-16T08:45:24;0.90;;;0.90;;
43457;SDS011;29046;54.184;18.680;2023-05-16T08:47:53;1.70;;;1.23;;
43457;SDS011;29046;54.184;18.680;2023-05-16T08:50:23;0.70;;;0.70;;
43457;SDS011;29046;54.184;18.680;2023-05-16T08:52:51;1.08;;;0.98;;
43457;SDS011;29046;54.184;18.680;2023-05-16T08:55:19;0.70;;;0.70;;
43457;SDS011;29046;54.184;18.680;2023-05-16T08:57:48;5.80;;;1.33;;
43457;SDS011;29046;54.184;18.680;2023-05-16T09:00:18;4.65;;;1.58;;
43457;SDS011;29046;54.184;18.680;2023-05-16T09:02:46;5.40;;;1.73;;
43457;SDS011;29046;54.184;18.680;2023-05-16T09:05:14;3.25;;;2.03;;
43457;SDS011;29046;54.184;18.680;2023-05-16T09:07:42;1.33;;;1.20;;
43457;SDS011;29046;54.184;18.680;2023-05-16T09:10:11;1.55;;;1.45;;
43457;SDS011;29046;54.184;18.680;2023-05-16T09:12:39;2.00;;;1.20;;
43457;SDS011;29046;54.184;18.680;2023-05-16T09:15:07;3.63;;;2.35;;
43457;SDS011;29046;54.184;18.680;2023-05-16T09:17:36;5.25;;;2.03;;
43457;SDS011;29046;54.184;18.680;2023-05-16T09:20:10;1.55;;;1.35;;
43457;SDS011;29046;54.184;18.680;2023-05-16T09:22:38;2.75;;;1.70;;
43457;SDS011;29046;54.184;18.680;2023-05-16T09:25:06;1.08;;;0.98;;
43457;SDS011;29046;54.184;18.680;2023-05-16T09:27:47;2.08;;;1.17;;
43457;SDS011;29046;54.184;18.680;2023-05-16T09:30:15;5.40;;;2.05;;
43457;SDS011;29046;54.184;18.680;2023-05-16T09:32:43;3.58;;;2.13;;
43457;SDS011;29046;54.184;18.680;2023-05-16T09:35:14;3.47;;;1.27;;
43457;SDS011;29046;54.184;18.680;2023-05-16T09:38:03;2.45;;;1.77;;
43457;SDS011;29046;54.184;18.680;2023-05-16T09:40:30;1.10;;;1.00;;
43457;SDS011;29046;54.184;18.680;2023-05-16T09:45:29;1.92;;;1.45;;
43457;SDS011;29046;54.184;18.680;2023-05-16T09:48:00;12.80;;;6.78;;
43457;SDS011;29046;54.184;18.680;2023-05-16T09:50:32;7.18;;;4.40;;
43457;SDS011;29046;54.184;18.680;2023-05-16T09:53:01;3.15;;;1.80;;
43457;SDS011;29046;54.184;18.680;2023-05-16T09:55:29;2.65;;;1.55;;
43457;SDS011;29046;54.184;18.680;2023-05-16T09:57:57;2.33;;;1.83;;
43457;SDS011;29046;54.184;18.680;2023-05-16T10:00:28;2.78;;;1.55;;
43457;SDS011;29046;54.184;18.680;2023-05-16T10:02:57;2.97;;;1.80;;
43457;SDS011;29046;54.184;18.680;2023-05-16T10:05:29;4.85;;;2.00;;
43457;SDS011;29046;54.184;18.680;2023-05-16T10:07:57;2.53;;;1.65;;
43457;SDS011;29046;54.184;18.680;2023-05-16T10:10:25;3.50;;;1.70;;
43457;SDS011;29046;54.184;18.680;2023-05-16T10:12:54;5.32;;;2.58;;
43457;SDS011;29046;54.184;18.680;2023-05-16T10:15:24;2.88;;;1.58;;
43457;SDS011;29046;54.184;18.680;2023-05-16T10:17:55;6.05;;;2.40;;
43457;SDS011;29046;54.184;18.680;2023-05-16T10:20:25;2.33;;;1.58;;
43457;SDS011;29046;54.184;18.680;2023-05-16T10:22:54;10.35;;;1.60;;
43457;SDS011;29046;54.184;18.680;2023-05-16T10:27:50;1.73;;;1.30;;
43457;SDS011;29046;54.184;18.680;2023-05-16T10:30:18;3.95;;;2.10;;
43457;SDS011;29046;54.184;18.680;2023-05-16T10:32:46;2.25;;;1.17;;
43457;SDS011;29046;54.184;18.680;2023-05-16T10:35:15;1.55;;;1.15;;
43457;SDS011;29046;54.184;18.680;2023-05-16T10:37:42;2.50;;;1.67;;
43457;SDS011;29046;54.184;18.680;2023-05-16T10:40:10;1.63;;;1.33;;
43457;SDS011;29046;54.184;18.680;2023-05-16T10:42:38;4.15;;;2.20;;
43457;SDS011;29046;54.184;18.680;2023-05-16T10:45:17;2.60;;;1.63;;
43457;SDS011;29046;54.184;18.680;2023-05-16T10:47:55;5.63;;;1.75;;
43457;SDS011;29046;54.184;18.680;2023-05-16T10:50:39;2.85;;;1.73;;
43457;SDS011;29046;54.184;18.680;2023-05-16T10:55:48;1.90;;;1.52;;
43457;SDS011;29046;54.184;18.680;2023-05-16T10:58:18;4.45;;;2.45;;
43457;SDS011;29046;54.184;18.680;2023-05-16T11:00:59;5.57;;;2.40;;
43457;SDS011;29046;54.184;18.680;2023-05-16T11:03:37;1.73;;;1.58;;
43457;SDS011;29046;54.184;18.680;2023-05-16T11:06:05;2.92;;;1.90;;
43457;SDS011;29046;54.184;18.680;2023-05-16T11:08:33;3.95;;;2.53;;
43457;SDS011;29046;54.184;18.680;2023-05-16T11:11:50;6.25;;;2.38;;
43457;SDS011;29046;54.184;18.680;2023-05-16T11:13:55;2.90;;;1.98;;
43457;SDS011;29046;54.184;18.680;2023-05-16T11:16:25;3.67;;;2.65;;
43457;SDS011;29046;54.184;18.680;2023-05-16T11:18:54;4.78;;;2.20;;
43457;SDS011;29046;54.184;18.680;2023-05-16T11:24:27;7.25;;;3.00;;
43457;SDS011;29046;54.184;18.680;2023-05-16T11:26:56;2.42;;;1.95;;
43457;SDS011;29046;54.184;18.680;2023-05-16T11:29:25;5.68;;;2.90;;
43457;SDS011;29046;54.184;18.680;2023-05-16T11:31:53;3.63;;;2.35;;
43457;SDS011;29046;54.184;18.680;2023-05-16T11:34:21;4.80;;;3.03;;
43457;SDS011;29046;54.184;18.680;2023-05-16T11:36:49;4.18;;;2.55;;
43457;SDS011;29046;54.184;18.680;2023-05-16T11:39:16;6.03;;;2.85;;
43457;SDS011;29046;54.184;18.680;2023-05-16T11:41:47;5.60;;;3.17;;
43457;SDS011;29046;54.184;18.680;2023-05-16T11:44:14;5.80;;;2.85;;
43457;SDS011;29046;54.184;18.680;2023-05-16T11:46:42;3.78;;;3.03;;
43457;SDS011;29046;54.184;18.680;2023-05-16T11:49:10;3.63;;;2.67;;
43457;SDS011;29046;54.184;18.680;2023-05-16T11:51:38;4.05;;;2.80;;
43457;SDS011;29046;54.184;18.680;2023-05-16T11:54:08;5.68;;;3.15;;
43457;SDS011;29046;54.184;18.680;2023-05-16T11:56:35;4.90;;;3.80;;
43457;SDS011;29046;54.184;18.680;2023-05-16T11:59:03;11.27;;;5.03;;
43457;SDS011;29046;54.184;18.680;2023-05-16T12:01:35;6.18;;;4.13;;
43457;SDS011;29046;54.184;18.680;2023-05-16T12:04:12;6.53;;;4.50;;
43457;SDS011;29046;54.184;18.680;2023-05-16T12:06:40;3.78;;;3.00;;
43457;SDS011;29046;54.184;18.680;2023-05-16T12:09:13;5.70;;;3.90;;
43457;SDS011;29046;54.184;18.680;2023-05-16T12:11:43;5.40;;;3.83;;
43457;SDS011;29046;54.184;18.680;2023-05-16T12:14:12;5.40;;;3.70;;
43457;SDS011;29046;54.184;18.680;2023-05-16T12:16:39;5.40;;;3.28;;
43457;SDS011;29046;54.184;18.680;2023-05-16T12:19:09;6.03;;;4.07;;
43457;SDS011;29046;54.184;18.680;2023-05-16T12:21:37;7.20;;;4.57;;
43457;SDS011;29046;54.184;18.680;2023-05-16T12:24:08;7.10;;;4.00;;
43457;SDS011;29046;54.184;18.680;2023-05-16T12:26:38;6.38;;;4.22;;
43457;SDS011;29046;54.184;18.680;2023-05-16T12:29:06;3.95;;;3.42;;
43457;SDS011;29046;54.184;18.680;2023-05-16T12:31:37;6.28;;;4.90;;
43457;SDS011;29046;54.184;18.680;2023-05-16T12:34:15;11.05;;;5.60;;
43457;SDS011;29046;54.184;18.680;2023-05-16T12:36:43;4.55;;;2.67;;
43457;SDS011;29046;54.184;18.680;2023-05-16T12:39:11;9.93;;;4.60;;
43457;SDS011;29046;54.184;18.680;2023-05-16T12:41:40;6.82;;;4.53;;
43457;SDS011;29046;54.184;18.680;2023-05-16T12:44:12;14.90;;;4.90;;
43457;SDS011;29046;54.184;18.680;2023-05-16T12:46:43;7.22;;;5.50;;
43457;SDS011;29046;54.184;18.680;2023-05-16T12:49:11;5.05;;;3.60;;
43457;SDS011;29046;54.184;18.680;2023-05-16T12:51:39;6.38;;;5.00;;
43457;SDS011;29046;54.184;18.680;2023-05-16T12:54:08;9.32;;;5.55;;
43457;SDS011;29046;54.184;18.680;2023-05-16T12:56:37;8.15;;;5.22;;
43457;SDS011;29046;54.184;18.680;2023-05-16T12:59:06;7.15;;;5.47;;
43457;SDS011;29046;54.184;18.680;2023-05-16T13:01:34;7.47;;;3.72;;
43457;SDS011;29046;54.184;18.680;2023-05-16T13:04:02;6.15;;;3.88;;
43457;SDS011;29046;54.184;18.680;2023-05-16T13:06:30;4.00;;;2.92;;
43457;SDS011;29046;54.184;18.680;2023-05-16T13:09:18;5.55;;;4.10;;
43457;SDS011;29046;54.184;18.680;2023-05-16T13:11:45;6.85;;;4.75;;
43457;SDS011;29046;54.184;18.680;2023-05-16T13:14:13;8.77;;;4.15;;
43457;SDS011;29046;54.184;18.680;2023-05-16T13:16:41;5.50;;;4.18;;
43457;SDS011;29046;54.184;18.680;2023-05-16T13:19:09;9.48;;;5.43;;
43457;SDS011;29046;54.184;18.680;2023-05-16T13:21:37;6.80;;;4.20;;
43457;SDS011;29046;54.184;18.680;2023-05-16T13:24:04;6.72;;;4.03;;
43457;SDS011;29046;54.184;18.680;2023-05-16T13:26:32;6.38;;;4.38;;
43457;SDS011;29046;54.184;18.680;2023-05-16T13:29:00;8.07;;;5.22;;
43457;SDS011;29046;54.184;18.680;2023-05-16T13:31:27;7.15;;;4.22;;
43457;SDS011;29046;54.184;18.680;2023-05-16T13:33:55;5.10;;;4.18;;
43457;SDS011;29046;54.184;18.680;2023-05-16T13:36:24;5.10;;;4.18;;
43457;SDS011;29046;54.184;18.680;2023-05-16T13:38:51;8.65;;;5.07;;
43457;SDS011;29046;54.184;18.680;2023-05-16T13:41:19;5.60;;;3.28;;
43457;SDS011;29046;54.184;18.680;2023-05-16T13:43:47;4.35;;;3.70;;
43457;SDS011;29046;54.184;18.680;2023-05-16T13:46:15;5.05;;;3.90;;
43457;SDS011;29046;54.184;18.680;2023-05-16T13:48:43;7.85;;;3.97;;
43457;SDS011;29046;54.184;18.680;2023-05-16T13:51:10;5.85;;;3.55;;
43457;SDS011;29046;54.184;18.680;2023-05-16T13:53:39;6.05;;;4.38;;
43457;SDS011;29046;54.184;18.680;2023-05-16T13:56:06;7.43;;;5.38;;
43457;SDS011;29046;54.184;18.680;2023-05-16T13:58:34;5.70;;;3.60;;
43457;SDS011;29046;54.184;18.680;2023-05-16T14:01:18;10.73;;;5.03;;
43457;SDS011;29046;54.184;18.680;2023-05-16T14:03:46;5.97;;;3.95;;
43457;SDS011;29046;54.184;18.680;2023-05-16T14:06:13;7.75;;;5.40;;
43457;SDS011;29046;54.184;18.680;2023-05-16T14:08:41;11.90;;;4.97;;
43457;SDS011;29046;54.184;18.680;2023-05-16T14:11:08;10.23;;;5.40;;
43457;SDS011;29046;54.184;18.680;2023-05-16T14:13:36;8.52;;;5.68;;
43457;SDS011;29046;54.184;18.680;2023-05-16T14:16:05;8.85;;;5.10;;
43457;SDS011;29046;54.184;18.680;2023-05-16T14:18:33;7.10;;;5.47;;
43457;SDS011;29046;54.184;18.680;2023-05-16T14:21:01;7.50;;;4.50;;
43457;SDS011;29046;54.184;18.680;2023-05-16T14:23:29;12.27;;;5.53;;
43457;SDS011;29046;54.184;18.680;2023-05-16T14:25:56;8.77;;;4.20;;
43457;SDS011;29046;54.184;18.680;2023-05-16T14:28:24;6.68;;;4.97;;
43457;SDS011;29046;54.184;18.680;2023-05-16T14:30:51;8.57;;;5.32;;
43457;SDS011;29046;54.184;18.680;2023-05-16T14:33:20;6.35;;;4.28;;
43457;SDS011;29046;54.184;18.680;2023-05-16T14:35:47;8.00;;;4.95;;
43457;SDS011;29046;54.184;18.680;2023-05-16T14:38:15;6.63;;;4.68;;
43457;SDS011;29046;54.184;18.680;2023-05-16T14:40:43;13.30;;;4.90;;
43457;SDS011;29046;54.184;18.680;2023-05-16T14:43:11;6.57;;;3.83;;
43457;SDS011;29046;54.184;18.680;2023-05-16T14:45:38;11.10;;;6.10;;
43457;SDS011;29046;54.184;18.680;2023-05-16T14:48:06;7.93;;;5.93;;
43457;SDS011;29046;54.184;18.680;2023-05-16T14:50:34;10.98;;;5.97;;
43457;SDS011;29046;54.184;18.680;2023-05-16T14:53:01;10.15;;;6.43;;
43457;SDS011;29046;54.184;18.680;2023-05-16T14:55:29;9.52;;;4.80;;
43457;SDS011;29046;54.184;18.680;2023-05-16T14:57:58;9.98;;;5.88;;
43457;SDS011;29046;54.184;18.680;2023-05-16T15:00:26;11.00;;;5.85;;
43457;SDS011;29046;54.184;18.680;2023-05-16T15:02:54;10.75;;;6.70;;
43457;SDS011;29046;54.184;18.680;2023-05-16T15:05:22;10.82;;;5.95;;
43457;SDS011;29046;54.184;18.680;2023-05-16T15:07:51;12.35;;;6.43;;